Time;durP1;ratioP1;P1;durP2;ratioP2;P2;SDS_P1;SDS_P2;PMS_P1;PMS_P2;Temp;Humidity;BMP_temperature;BMP_pressure;BME280_temperature;BME280_humidity;BME280_pressure;Samples;Min_cycle;Max_cycle;Signal;HPM_P1;HPM_P2
2022/12/26 00:00:59;;;;;;;3.80;2.33;;;;;;;13.74;71.03;100415.06;5111640;28;20632;-60
2022/12/26 00:03:29;;;;;;;5.30;2.50;;;;;;;13.78;70.96;100421.75;5102588;28;20220;-60
2022/12/26 00:05:58;;;;;;;7.73;2.40;;;;;;;13.77;71.09;100420.91;5107029;28;20209;-60
2022/12/26 00:08:26;;;;;;;6.10;2.23;;;;;;;13.82;70.74;100423.88;5104326;28;20247;-60
2022/12/26 00:10:54;;;;;;;5.07;2.47;;;;;;;13.82;70.83;100418.56;5106296;28;20703;-60
2022/12/26 00:13:22;;;;;;;3.80;1.87;;;;;;;13.86;70.57;100409.22;5107712;28;20290;-62
2022/12/26 00:16:08;;;;;;;3.80;2.23;;;;;;;13.84;70.61;100405.91;5104884;27;20217;-61
2022/12/26 00:18:36;;;;;;;5.47;2.20;;;;;;;13.81;70.68;100402.72;5106421;28;20288;-62
2022/12/26 00:21:05;;;;;;;4.53;2.40;;;;;;;13.82;70.68;100391.91;5104021;28;20665;-62
2022/12/26 00:23:33;;;;;;;4.37;2.40;;;;;;;13.79;70.65;100381.59;5102871;28;20297;-61
2022/12/26 00:26:06;;;;;;;3.93;2.53;;;;;;;13.75;71.74;100382.94;5106710;27;20583;-61
2022/12/26 00:28:34;;;;;;;5.17;2.50;;;;;;;13.72;71.24;100391.25;5105796;28;20212;-62
2022/12/26 00:31:04;;;;;;;4.90;2.43;;;;;;;13.73;71.01;100395.59;5104500;28;20360;-59
2022/12/26 00:33:33;;;;;;;5.53;2.30;;;;;;;13.69;71.24;100407.59;5108330;28;20224;-60
2022/12/26 00:36:02;;;;;;;4.53;2.57;;;;;;;13.70;71.12;100400.44;5101055;28;20263;-59
2022/12/26 00:38:32;;;;;;;4.40;2.50;;;;;;;13.64;71.75;100399.28;5104810;28;20237;-59
2022/12/26 00:40:59;;;;;;;5.10;2.50;;;;;;;13.66;71.37;100405.28;5104962;28;20572;-59
2022/12/26 00:43:27;;;;;;;6.73;2.40;;;;;;;13.71;71.01;100394.13;5107109;28;20210;-60
2022/12/26 00:45:55;;;;;;;4.60;2.13;;;;;;;13.62;71.25;100398.63;5102527;28;20649;-60
2022/12/26 00:48:23;;;;;;;4.60;2.53;;;;;;;13.61;71.59;100402.28;5103006;28;20213;-59
2022/12/26 00:50:51;;;;;;;5.37;2.60;;;;;;;13.60;71.42;100403.28;5104428;28;20203;-60
2022/12/26 00:53:19;;;;;;;5.17;2.43;;;;;;;13.54;71.74;100403.97;5103303;28;20205;-60
2022/12/26 00:55:48;;;;;;;4.93;2.37;;;;;;;13.56;71.61;100401.94;5107029;28;20688;-60
2022/12/26 00:58:16;;;;;;;5.27;2.63;;;;;;;13.50;71.75;100407.97;5108015;28;20892;-60
2022/12/26 01:00:44;;;;;;;3.77;2.00;;;;;;;13.49;71.74;100406.28;5102929;28;20676;-60
2022/12/26 01:03:12;;;;;;;4.10;2.30;;;;;;;13.51;72.00;100404.31;5103805;28;20204;-60
2022/12/26 01:05:41;;;;;;;4.47;2.43;;;;;;;13.49;71.72;100396.47;5107120;28;20633;-61
2022/12/26 01:08:09;;;;;;;6.47;2.53;;;;;;;13.47;72.12;100386.97;5100232;28;20299;-60
2022/12/26 01:10:53;;;;;;;6.83;2.77;;;;;;;13.44;72.58;100382.84;5106512;27;20198;-60
2022/12/26 01:13:20;;;;;;;5.70;2.67;;;;;;;13.48;72.13;100385.97;5108452;28;20640;-61
2022/12/26 01:15:49;;;;;;;6.33;2.37;;;;;;;13.45;72.21;100399.66;5101658;28;20212;-60
2022/12/26 01:18:17;;;;;;;6.57;3.23;;;;;;;13.43;72.41;100401.66;5105088;28;20605;-61
2022/12/26 01:20:45;;;;;;;6.13;2.60;;;;;;;13.42;72.76;100410.63;5103765;28;20711;-60
2022/12/26 01:23:13;;;;;;;5.23;2.40;;;;;;;13.41;72.46;100414.28;5108638;28;20210;-61
2022/12/26 01:25:41;;;;;;;5.33;2.53;;;;;;;13.42;72.65;100415.97;5104173;28;20202;-61
2022/12/26 01:28:30;;;;;;;3.87;2.17;;;;;;;13.47;72.27;100418.94;5100960;28;20206;-62
2022/12/26 01:31:01;;;;;;;5.37;2.80;;;;;;;13.37;72.99;100434.28;5102948;28;20232;-60
2022/12/26 01:33:29;;;;;;;4.57;2.57;;;;;;;13.37;72.99;100427.09;5104527;28;20214;-61
2022/12/26 01:35:57;;;;;;;5.27;2.27;;;;;;;13.36;72.77;100425.47;5103254;28;20598;-59
2022/12/26 01:38:24;;;;;;;3.13;2.13;;;;;;;13.33;73.05;100423.13;5105547;28;20207;-60
2022/12/26 01:41:15;;;;;;;6.10;2.70;;;;;;;13.35;73.18;100430.97;5107481;28;20218;-60
2022/12/26 01:43:52;;;;;;;5.47;2.67;;;;;;;13.37;73.04;100423.63;5103564;28;20260;-61
2022/12/26 01:46:24;;;;;;;7.57;3.10;;;;;;;13.31;73.47;100426.94;5100213;28;20621;-61
2022/12/26 01:48:52;;;;;;;5.87;3.03;;;;;;;13.34;73.00;100413.31;5106561;28;20590;-60
2022/12/26 01:51:24;;;;;;;7.50;3.13;;;;;;;13.29;73.88;100426.28;5104542;28;20248;-60
2022/12/26 01:53:55;;;;;;;6.10;2.70;;;;;;;13.30;74.12;100428.78;5111469;28;20640;-60
2022/12/26 01:57:01;;;;;;;5.37;2.60;;;;;;;13.32;74.06;100425.94;5112718;28;20269;-59
2022/12/26 01:59:36;;;;;;;5.60;2.40;;;;;;;13.36;73.29;100440.63;5112486;28;20210;-60
2022/12/26 02:02:05;;;;;;;7.40;2.30;;;;;;;13.32;73.70;100453.41;5112034;28;20671;-60
2022/12/26 02:07:21;;;;;;;4.27;2.33;;;;;;;13.39;73.29;100443.75;5111584;27;20303;-61
2022/12/26 02:09:50;;;;;;;4.40;2.10;;;;;;;13.38;73.23;100441.25;5109843;28;20209;-61
2022/12/26 02:12:23;;;;;;;7.00;2.73;;;;;;;13.42;73.18;100459.41;5112584;28;20264;-61
2022/12/26 02:15:08;;;;;;;4.53;2.13;;;;;;;13.40;73.27;100463.22;5109796;28;20211;-60
2022/12/26 02:17:39;;;;;;;6.90;2.47;;;;;;;13.46;72.84;100452.75;5115111;27;20650;-61
2022/12/26 02:20:16;;;;;;;5.20;2.53;;;;;;;13.41;73.72;100454.25;5110958;28;20876;-62
2022/12/26 02:23:24;;;;;;;6.30;2.30;;;;;;;13.44;73.37;100460.09;5106897;28;20673;-62
2022/12/26 02:26:18;;;;;;;6.83;2.93;;;;;;;13.43;73.19;100450.44;5100512;28;20203;-61
2022/12/26 02:29:19;;;;;;;9.10;3.27;;;;;;;13.44;73.75;100457.44;5114386;28;20658;-61
2022/12/26 02:31:59;;;;;;;5.83;3.00;;;;;;;13.40;73.39;100460.56;5098911;28;20241;-62
2022/12/26 02:34:37;;;;;;;6.33;3.43;;;;;;;13.37;74.17;100456.41;5111858;28;20630;-59
2022/12/26 02:37:17;;;;;;;6.10;2.83;;;;;;;13.38;74.05;100452.75;5110932;28;20564;-60
2022/12/26 02:40:01;;;;;;;5.07;2.80;;;;;;;13.46;73.50;100454.56;5108404;28;20584;-60
2022/12/26 02:42:43;;;;;;;6.23;2.60;;;;;;;13.46;73.18;100460.72;5109506;28;20319;-60
2022/12/26 02:48:17;;;;;;;5.57;2.50;;;;;;;13.58;72.60;100450.56;5015804;28;20298;-60
2022/12/26 03:13:45;;;;;;;6.57;2.03;;;;;;;13.84;71.47;100432.56;5111339;28;20225;-59
2022/12/26 03:19:05;;;;;;;3.70;1.87;;;;;;;13.82;72.27;100404.41;5107153;28;20224;-60
2022/12/26 03:21:39;;;;;;;9.23;2.60;;;;;;;13.87;71.35;100426.06;5103240;28;20241;-60
2022/12/26 03:24:10;;;;;;;6.43;2.20;;;;;;;13.88;71.54;100412.56;5104832;28;20202;-60
2022/12/26 03:26:46;;;;;;;9.00;2.47;;;;;;;13.88;71.68;100409.91;5102840;28;20201;-60
2022/12/26 03:32:07;;;;;;;8.57;2.47;;;;;;;13.85;71.63;100409.41;5109744;28;20697;-59
2022/12/26 03:34:40;;;;;;;5.93;2.20;;;;;;;13.85;71.66;100418.22;5104138;28;20204;-60
2022/12/26 03:37:29;;;;;;;5.67;2.40;;;;;;;13.82;72.41;100439.88;5108957;28;20219;-60
2022/12/26 04:41:34;;;;;;;5.77;2.13;;;;;;;13.82;72.36;100460.38;5106419;28;20364;-60
2022/12/26 04:44:09;;;;;;;6.80;2.20;;;;;;;13.87;72.90;100472.19;5104070;28;20209;-61
2022/12/26 04:46:39;;;;;;;6.27;2.33;;;;;;;13.88;72.84;100465.03;5104730;28;20250;-60
2022/12/26 04:51:55;;;;;;;7.10;2.20;;;;;;;13.86;73.64;100473.19;5105800;28;20673;-61
2022/12/26 04:54:23;;;;;;;4.47;2.37;;;;;;;13.93;72.44;100473.34;5103772;28;20574;-61
2022/12/26 04:56:51;;;;;;;5.50;2.23;;;;;;;13.96;72.25;100473.03;5108832;28;20597;-60
2022/12/26 04:59:21;;;;;;;4.87;2.30;;;;;;;13.93;72.30;100481.34;5101106;28;20210;-60
2022/12/26 05:10:15;;;;;;;6.10;2.30;;;;;;;13.88;72.80;100479.19;5101932;28;20206;-60
2022/12/26 05:12:43;;;;;;;4.90;2.40;;;;;;;14.00;71.63;100473.50;5105222;28;20264;-60
2022/12/26 05:15:12;;;;;;;5.90;2.33;;;;;;;14.00;71.65;100473.50;5105548;28;20235;-60
2022/12/26 05:29:02;;;;;;;5.57;2.30;;;;;;;13.86;73.19;100478.53;5023301;28;20659;-60
2022/12/26 05:31:32;;;;;;;5.73;2.17;;;;;;;13.93;72.49;100471.50;5087429;28;20277;-60
2022/12/26 05:34:05;;;;;;;3.33;1.90;;;;;;;13.92;72.38;100477.84;5101756;28;20205;-61
2022/12/26 05:36:37;;;;;;;5.50;1.90;;;;;;;13.96;72.28;100469.53;5105251;28;20307;-60
2022/12/26 05:39:05;;;;;;;4.47;1.73;;;;;;;13.88;72.57;100462.38;5104264;28;20625;-60
2022/12/26 05:41:33;;;;;;;7.53;2.53;;;;;;;13.91;72.46;100470.84;5103085;28;20274;-60
2022/12/26 05:44:01;;;;;;;6.90;2.20;;;;;;;13.96;72.33;100466.84;5102208;28;20212;-61
2022/12/26 05:46:28;;;;;;;5.30;2.27;;;;;;;13.96;72.49;100466.84;5105670;28;20304;-61
2022/12/26 05:48:58;;;;;;;6.40;1.90;;;;;;;14.01;72.00;100469.84;5102733;28;20216;-61
2022/12/26 05:51:25;;;;;;;4.53;1.87;;;;;;;14.00;71.75;100471.66;5098950;28;20630;-61
2022/12/26 05:53:53;;;;;;;6.50;2.10;;;;;;;13.96;72.01;100462.34;5106013;28;20254;-61
2022/12/26 05:56:22;;;;;;;8.30;2.00;;;;;;;14.06;71.58;100472.84;5107037;28;20341;-61
2022/12/26 05:58:54;;;;;;;4.33;1.90;;;;;;;14.05;71.25;100479.16;5104363;28;20296;-61
2022/12/26 06:01:22;;;;;;;5.90;2.57;;;;;;;13.99;72.13;100493.16;5104703;28;20233;-61
2022/12/26 06:03:52;;;;;;;8.90;2.40;;;;;;;14.03;71.73;100483.81;5104516;28;20244;-61
2022/12/26 06:06:22;;;;;;;5.80;2.33;;;;;;;14.03;72.07;100478.50;5102599;28;20642;-61
2022/12/26 06:08:51;;;;;;;4.50;2.03;;;;;;;13.98;72.38;100472.84;5105466;28;20542;-61
2022/12/26 06:11:20;;;;;;;5.40;2.40;;;;;;;14.03;72.16;100479.34;5101901;28;20675;-61
2022/12/26 06:13:48;;;;;;;6.50;2.00;;;;;;;14.06;71.74;100478.16;5104853;28;20239;-60
2022/12/26 06:16:17;;;;;;;5.23;2.20;;;;;;;13.97;72.32;100490.69;5104251;28;20308;-60
2022/12/26 06:18:45;;;;;;;4.57;2.10;;;;;;;13.95;73.49;100498.00;5104149;28;20240;-61
2022/12/26 06:21:16;;;;;;;3.80;1.83;;;;;;;13.98;72.83;100486.19;5102973;28;20344;-62
2022/12/26 06:23:45;;;;;;;6.03;2.40;;;;;;;13.98;72.98;100491.53;5105204;28;20205;-61
2022/12/26 06:26:13;;;;;;;4.30;2.20;;;;;;;14.03;72.93;100495.31;5099964;28;20755;-60
2022/12/26 06:28:42;;;;;;;4.90;2.13;;;;;;;14.03;72.73;100490.00;5100472;28;20209;-61
2022/12/26 06:31:15;;;;;;;5.17;2.27;;;;;;;14.01;72.61;100491.16;5087010;28;20234;-60
2022/12/26 06:33:43;;;;;;;6.30;2.50;;;;;;;13.96;73.31;100483.69;5079356;28;20722;-60
2022/12/26 06:36:12;;;;;;;4.27;2.07;;;;;;;13.97;73.61;100492.50;5083584;28;20242;-60
2022/12/26 06:38:40;;;;;;;4.63;2.13;;;;;;;13.98;74.16;100496.84;5086762;28;20208;-61
2022/12/26 06:41:12;;;;;;;5.60;2.27;;;;;;;13.99;73.97;100493.16;5085312;28;20210;-61
2022/12/26 06:43:40;;;;;;;2.80;1.80;;;;;;;14.04;73.50;100496.16;5088039;28;20217;-61
2022/12/26 06:46:12;;;;;;;5.33;2.20;;;;;;;14.02;73.60;100499.00;5082239;28;20238;-60
2022/12/26 06:48:40;;;;;;;6.90;2.13;;;;;;;13.93;74.44;100506.16;5087445;28;20214;-60
2022/12/26 06:51:11;;;;;;;5.00;1.87;;;;;;;13.99;73.92;100509.16;5085089;28;20369;-60
2022/12/26 06:53:39;;;;;;;4.50;2.43;;;;;;;13.96;74.59;100517.50;5085844;28;20292;-60
2022/12/26 06:56:11;;;;;;;3.87;2.17;;;;;;;13.92;74.88;100509.84;5087487;28;20723;-61
2022/12/26 06:58:39;;;;;;;5.87;2.43;;;;;;;13.97;74.86;100521.84;5085228;28;20214;-61
2022/12/26 07:01:09;;;;;;;4.93;2.53;;;;;;;13.94;74.65;100515.84;5087913;28;20237;-61
2022/12/26 07:03:37;;;;;;;4.53;1.87;;;;;;;13.92;74.80;100509.84;5087008;28;20233;-61
2022/12/26 07:06:13;;;;;;;5.63;2.03;;;;;;;13.82;75.53;100497.69;5087746;28;20244;-61
2022/12/26 07:08:41;;;;;;;4.63;2.10;;;;;;;13.80;75.60;100500.53;5085338;28;20573;-61
2022/12/26 07:11:14;;;;;;;2.93;1.80;;;;;;;13.73;76.20;100509.34;5086793;28;20229;-61
2022/12/26 07:13:43;;;;;;;4.10;1.90;;;;;;;13.73;76.63;100512.84;5082798;28;20235;-61
2022/12/26 07:16:11;;;;;;;3.60;1.70;;;;;;;13.78;76.33;100515.84;5086514;28;20296;-61
2022/12/26 07:18:39;;;;;;;4.80;1.90;;;;;;;13.83;76.46;100529.50;5084667;28;20224;-61
2022/12/26 07:21:08;;;;;;;6.00;1.93;;;;;;;13.82;76.39;100525.16;5086965;28;20353;-61
2022/12/26 07:23:38;;;;;;;3.47;1.90;;;;;;;13.83;76.70;100534.84;5089649;28;20264;-61
2022/12/26 07:26:06;;;;;;;4.77;2.10;;;;;;;13.80;77.50;100556.50;5088008;28;20295;-62
2022/12/26 07:28:35;;;;;;;5.97;2.07;;;;;;;13.73;77.82;100563.47;5085149;28;20593;-62
2022/12/26 07:31:03;;;;;;;4.03;1.93;;;;;;;13.73;78.41;100562.63;5101149;27;20243;-62
2022/12/26 07:33:32;;;;;;;6.07;2.30;;;;;;;13.84;77.72;100557.81;5105748;28;20247;-62
2022/12/26 07:36:00;;;;;;;8.90;2.33;;;;;;;13.84;78.09;100571.16;5108571;28;20244;-62
2022/12/26 07:38:28;;;;;;;5.53;2.10;;;;;;;13.84;78.08;100567.66;5100009;27;20779;-62
2022/12/26 07:40:56;;;;;;;4.40;2.03;;;;;;;13.78;78.97;100555.84;5102605;28;20304;-62
2022/12/26 07:43:24;;;;;;;3.90;2.20;;;;;;;13.76;79.25;100568.50;5107829;28;20225;-62
2022/12/26 07:45:57;;;;;;;7.23;2.23;;;;;;;13.80;78.92;100559.19;5107501;27;20209;-62
2022/12/26 07:48:25;;;;;;;7.37;2.10;;;;;;;13.74;79.40;100561.66;5101951;28;20292;-61
2022/12/26 07:50:53;;;;;;;4.23;2.30;;;;;;;13.67;79.85;100555.31;5104486;28;20211;-62
2022/12/26 07:53:20;;;;;;;5.27;2.10;;;;;;;13.66;79.91;100565.16;5108772;28;20242;-62
2022/12/26 07:55:48;;;;;;;5.67;1.87;;;;;;;13.65;79.89;100560.81;5107337;28;20209;-62
2022/12/26 07:58:16;;;;;;;7.13;2.43;;;;;;;13.62;80.16;100555.84;5103817;28;20224;-62
2022/12/26 08:00:43;;;;;;;3.70;2.00;;;;;;;13.66;80.05;100559.81;5112482;27;20297;-62
2022/12/26 08:03:13;;;;;;;5.07;1.80;;;;;;;13.68;80.16;100565.81;5101541;28;20236;-63
2022/12/26 08:05:44;;;;;;;3.93;2.30;;;;;;;13.66;80.13;100572.31;5106123;28;20218;-63
2022/12/26 08:08:12;;;;;;;7.00;2.50;;;;;;;13.69;80.00;100579.97;5108929;28;20642;-63
2022/12/26 08:10:40;;;;;;;6.07;2.30;;;;;;;13.68;80.34;100576.47;5103993;28;20227;-63
2022/12/26 08:13:08;;;;;;;3.43;2.20;;;;;;;13.64;80.29;100572.47;5109108;28;20317;-63
2022/12/26 08:15:38;;;;;;;4.33;2.57;;;;;;;13.67;80.54;100582.81;5103662;28;20220;-62
2022/12/26 08:18:07;;;;;;;4.00;2.07;;;;;;;13.64;80.40;100585.78;5105508;28;20646;-62
2022/12/26 08:20:36;;;;;;;3.97;1.80;;;;;;;13.66;80.35;100591.78;5106632;28;20213;-62
2022/12/26 08:23:04;;;;;;;5.23;2.23;;;;;;;13.60;80.87;100597.78;5105147;28;20233;-62
2022/12/26 08:25:32;;;;;;;4.63;2.07;;;;;;;13.60;80.77;100589.78;5102449;28;20202;-62
2022/12/26 08:27:59;;;;;;;4.50;2.10;;;;;;;13.62;80.63;100598.47;5099096;28;20684;-60
2022/12/26 08:30:27;;;;;;;6.23;2.10;;;;;;;13.61;80.68;100607.47;5094581;28;20240;-60
2022/12/26 08:32:55;;;;;;;4.80;1.90;;;;;;;13.61;80.49;100611.94;5083682;28;20209;-61
2022/12/26 08:35:23;;;;;;;4.10;2.00;;;;;;;13.68;79.46;100616.44;5085298;28;20214;-61
2022/12/26 08:37:52;;;;;;;5.13;2.03;;;;;;;13.68;79.51;100611.13;5085215;28;20257;-62
2022/12/26 08:40:20;;;;;;;5.10;2.30;;;;;;;13.73;79.12;100610.63;5084850;28;20675;-61
2022/12/26 08:43:08;;;;;;;3.63;1.70;;;;;;;13.65;79.59;100602.63;5085204;28;20237;-62
2022/12/26 08:46:00;;;;;;;4.60;1.53;;;;;;;13.67;78.62;100585.47;5086147;28;20209;-63
2022/12/26 08:48:28;;;;;;;3.97;2.33;;;;;;;13.67;78.68;100598.78;5083200;28;20942;-63
2022/12/26 08:51:01;;;;;;;4.30;1.80;;;;;;;13.68;78.94;100594.31;5088350;28;20208;-62
2022/12/26 08:53:34;;;;;;;3.97;2.00;;;;;;;13.57;79.45;100574.13;5084235;28;20197;-62
2022/12/26 08:56:03;;;;;;;4.37;1.93;;;;;;;13.59;78.75;100561.47;5085547;28;20205;-63
2022/12/26 08:58:31;;;;;;;4.90;2.30;;;;;;;13.59;78.37;100553.50;5085192;28;20213;-62
2022/12/26 09:01:06;;;;;;;3.80;1.87;;;;;;;13.52;78.97;100544.50;5082872;28;20204;-62
2022/12/26 09:03:34;;;;;;;3.83;1.90;;;;;;;13.46;79.41;100555.78;5085689;28;20230;-62
2022/12/26 09:06:04;;;;;;;3.50;1.63;;;;;;;13.46;79.79;100566.44;5085294;28;20655;-62
2022/12/26 09:08:35;;;;;;;3.70;1.97;;;;;;;13.55;79.15;100571.63;5087611;28;20222;-62
2022/12/26 09:11:04;;;;;;;3.70;1.90;;;;;;;13.50;79.34;100594.44;5084863;28;20212;-62
2022/12/26 09:13:33;;;;;;;3.87;1.73;;;;;;;13.50;79.70;100631.75;5084213;28;20315;-63
2022/12/26 09:16:06;;;;;;;2.77;1.67;;;;;;;13.55;79.52;100654.22;5083354;28;20216;-62
2022/12/26 09:18:34;;;;;;;5.37;1.70;;;;;;;13.52;79.38;100659.88;5072522;28;20219;-62
2022/12/26 09:21:07;;;;;;;4.03;1.57;;;;;;;13.56;79.40;100676.38;5087187;28;20205;-62
2022/12/26 09:23:37;;;;;;;3.87;1.70;;;;;;;13.60;78.39;100664.41;5083369;28;20217;-63
2022/12/26 09:26:06;;;;;;;6.37;2.10;;;;;;;13.56;78.77;100665.72;5081069;28;20207;-62
2022/12/26 09:28:34;;;;;;;3.53;1.50;;;;;;;13.56;79.39;100647.06;5083855;28;20299;-62
2022/12/26 09:31:03;;;;;;;5.03;1.80;;;;;;;13.60;78.30;100628.94;5096450;28;20292;-62
2022/12/26 09:33:35;;;;;;;4.10;1.53;;;;;;;13.53;79.02;100620.75;5103075;28;20210;-62
2022/12/26 09:36:05;;;;;;;3.30;1.80;;;;;;;13.49;79.65;100640.72;5106314;28;20936;-62
2022/12/26 09:38:42;;;;;;;5.80;1.60;;;;;;;13.50;79.47;100658.38;5103569;28;20640;-62
2022/12/26 09:41:24;;;;;;;4.03;1.73;;;;;;;13.55;79.12;100675.53;5106826;28;20279;-62
2022/12/26 09:44:00;;;;;;;4.37;1.77;;;;;;;13.64;78.89;100679.06;5107195;28;20787;-62
2022/12/26 09:46:33;;;;;;;3.70;1.87;;;;;;;13.66;78.63;100679.72;5102957;28;20213;-62
2022/12/26 09:49:04;;;;;;;4.17;1.70;;;;;;;13.63;78.32;100681.91;5103896;28;20207;-62
2022/12/26 09:51:34;;;;;;;4.43;1.97;;;;;;;13.62;78.47;100688.22;5101867;28;20705;-62
2022/12/26 09:54:07;;;;;;;5.10;1.70;;;;;;;13.57;79.08;100691.38;5103698;28;20211;-62
2022/12/26 09:56:38;;;;;;;3.13;1.70;;;;;;;13.59;79.02;100689.38;5103933;28;20691;-62
2022/12/26 09:59:28;;;;;;;4.77;1.53;;;;;;;13.60;78.79;100684.88;5101150;28;20267;-62
2022/12/26 10:01:56;;;;;;;2.77;1.67;;;;;;;13.50;79.39;100659.22;5102709;28;20206;-62
2022/12/26 10:04:26;;;;;;;3.90;1.90;;;;;;;13.55;78.67;100651.56;5101440;28;20230;-62
2022/12/26 10:07:07;;;;;;;2.80;1.50;;;;;;;13.47;79.14;100648.88;5105158;28;20240;-63
2022/12/26 10:09:49;;;;;;;2.97;1.60;;;;;;;13.51;78.68;100657.38;5102775;28;20232;-62
2022/12/26 10:12:28;;;;;;;2.10;1.30;;;;;;;13.47;78.73;100653.34;5102702;28;20226;-63
2022/12/26 10:15:02;;;;;;;4.20;2.07;;;;;;;13.46;78.31;100662.34;5107888;28;20229;-63
2022/12/26 10:17:37;;;;;;;3.97;1.50;;;;;;;13.39;78.61;100662.16;5106800;28;20206;-63
2022/12/26 10:20:18;;;;;;;3.10;1.67;;;;;;;13.39;78.94;100672.81;5107021;28;20204;-62
2022/12/26 10:23:04;;;;;;;4.60;2.43;;;;;;;13.40;79.00;100676.31;5107229;28;20206;-62
2022/12/26 10:25:42;;;;;;;2.70;1.40;;;;;;;13.44;78.20;100675.84;5108857;28;20213;-62
2022/12/26 10:28:17;;;;;;;3.67;1.60;;;;;;;13.38;78.71;100672.97;5107151;28;20210;-61
2022/12/26 10:30:47;;;;;;;2.83;1.13;;;;;;;13.47;78.26;100658.69;5106995;28;20245;-61
2022/12/26 10:33:20;;;;;;;2.83;1.20;;;;;;;13.43;78.43;100684.00;5103431;27;20213;-63
2022/12/26 10:35:48;;;;;;;2.77;1.40;;;;;;;13.47;78.04;100694.16;5108941;28;20214;-62
2022/12/26 10:38:31;;;;;;;3.53;1.07;;;;;;;13.51;77.89;100708.84;5105886;28;20213;-62
2022/12/26 10:41:05;;;;;;;2.40;1.30;;;;;;;13.49;78.05;100692.19;5105621;28;20211;-62
2022/12/26 10:43:34;;;;;;;4.53;1.13;;;;;;;13.53;77.76;100690.03;5107489;27;20213;-63
2022/12/26 10:46:27;;;;;;;4.70;1.70;;;;;;;13.50;77.95;100691.19;5108886;28;20205;-63
2022/12/26 10:48:55;;;;;;;4.67;1.50;;;;;;;13.46;77.89;100683.66;5104771;28;20677;-63
2022/12/26 10:51:24;;;;;;;3.60;1.37;;;;;;;13.46;77.86;100673.84;5108764;28;20210;-62
2022/12/26 10:53:53;;;;;;;3.83;1.30;;;;;;;13.48;78.28;100682.50;5106362;28;20206;-63
2022/12/26 10:56:25;;;;;;;5.33;1.40;;;;;;;13.51;78.13;100678.69;5108260;28;20647;-63
2022/12/26 10:59:00;;;;;;;3.13;1.27;;;;;;;13.49;77.79;100680.69;5105850;28;20681;-62
2022/12/26 11:01:36;;;;;;;4.40;1.27;;;;;;;13.45;78.22;100687.34;5112601;27;20243;-61
2022/12/26 11:04:06;;;;;;;4.13;1.70;;;;;;;13.43;78.58;100678.69;5107135;28;20662;-61
2022/12/26 11:06:39;;;;;;;2.77;1.30;;;;;;;13.46;78.41;100681.00;5109350;28;20206;-62
2022/12/26 11:09:24;;;;;;;3.30;1.30;;;;;;;13.44;78.42;100683.00;5103867;28;20260;-62
2022/12/26 11:11:54;;;;;;;4.17;1.30;;;;;;;13.50;78.27;100690.34;5101814;28;20213;-61
2022/12/26 11:14:29;;;;;;;2.90;1.57;;;;;;;13.43;78.54;100695.50;5105280;28;20281;-62
2022/12/26 11:17:04;;;;;;;3.73;2.23;;;;;;;13.47;78.74;100685.34;5105250;28;20242;-61
2022/12/26 11:19:35;;;;;;;4.30;2.13;;;;;;;13.43;79.15;100694.66;5107077;28;20216;-61
2022/12/26 11:22:22;;;;;;;3.50;1.60;;;;;;;13.42;79.56;100700.97;5106379;28;20210;-61
2022/12/26 11:25:11;;;;;;;4.50;2.40;;;;;;;13.51;79.10;100700.00;5105795;28;20236;-60
2022/12/26 11:27:42;;;;;;;6.07;2.60;;;;;;;13.49;79.15;100697.50;5101983;28;20209;-61
2022/12/26 11:30:18;;;;;;;6.43;3.83;;;;;;;13.52;79.28;100694.53;5097890;27;20233;-61
2022/12/26 11:32:51;;;;;;;5.83;3.43;;;;;;;13.65;78.54;100698.53;5104747;28;20674;-62
2022/12/26 11:35:23;;;;;;;4.17;2.57;;;;;;;13.54;79.29;100699.69;5108477;28;20195;-61
2022/12/26 11:37:53;;;;;;;4.37;1.40;;;;;;;13.58;79.11;100703.69;5106995;28;20219;-61
2022/12/26 11:40:24;;;;;;;3.33;1.30;;;;;;;13.68;78.28;100700.88;5112098;27;20206;-61
2022/12/26 11:42:56;;;;;;;3.13;1.20;;;;;;;13.71;78.33;100701.41;5100333;28;20216;-61
2022/12/26 11:45:26;;;;;;;3.70;1.20;;;;;;;13.83;77.95;100685.94;5106370;28;20272;-61
2022/12/26 11:47:56;;;;;;;4.27;1.60;;;;;;;13.85;77.53;100695.44;5105677;28;20537;-63
2022/12/26 11:50:27;;;;;;;3.17;1.23;;;;;;;13.92;77.22;100701.78;5105856;28;20674;-60
2022/12/26 11:53:06;;;;;;;3.07;1.47;;;;;;;13.90;77.27;100701.09;5104898;28;20215;-62
2022/12/26 11:55:37;;;;;;;2.73;1.30;;;;;;;13.96;77.11;100691.63;5105784;28;20667;-63
2022/12/26 11:58:18;;;;;;;3.17;1.20;;;;;;;13.94;77.08;100702.44;5107296;28;20206;-63
2022/12/26 12:01:06;;;;;;;2.90;1.23;;;;;;;13.98;77.35;100704.78;5105828;28;20209;-63
2022/12/26 12:03:37;;;;;;;3.90;1.20;;;;;;;14.01;77.43;100699.13;5103663;28;20605;-65
2022/12/26 12:06:26;;;;;;;6.80;1.50;;;;;;;14.08;76.42;100684.97;5104940;28;20225;-63
2022/12/26 12:09:02;;;;;;;4.53;1.63;;;;;;;13.98;76.49;100686.13;5105004;28;20714;-63
2022/12/26 12:11:42;;;;;;;7.27;2.50;;;;;;;14.03;75.71;100687.28;5102973;28;20217;-62
2022/12/26 12:14:27;;;;;;;4.07;1.43;;;;;;;13.97;76.86;100681.81;5108141;28;20204;-63
2022/12/26 12:17:08;;;;;;;2.87;1.13;;;;;;;14.06;75.72;100686.16;5097754;28;20217;-62
2022/12/26 12:19:58;;;;;;;2.53;1.10;;;;;;;14.06;75.18;100688.81;5099192;28;20233;-62
2022/12/26 12:22:49;;;;;;;2.97;0.90;;;;;;;14.00;74.74;100676.13;5102367;28;20208;-63
2022/12/26 12:25:30;;;;;;;3.17;0.80;;;;;;;14.03;74.58;100681.97;5108625;28;20804;-63
2022/12/26 12:28:06;;;;;;;2.47;1.10;;;;;;;14.05;74.27;100679.97;5099759;27;20212;-62
2022/12/26 12:30:45;;;;;;;5.50;1.50;;;;;;;14.05;74.82;100677.31;5108025;28;20238;-63
2022/12/26 12:33:31;;;;;;;3.53;1.27;;;;;;;14.12;73.94;100680.97;5104322;28;20216;-63
2022/12/26 12:36:10;;;;;;;4.03;1.33;;;;;;;14.04;74.79;100678.31;5105752;28;20196;-63
2022/12/26 12:38:56;;;;;;;4.10;1.73;;;;;;;14.09;73.40;100678.63;5106907;28;20212;-62
2022/12/26 12:42:05;;;;;;;4.67;1.17;;;;;;;14.08;73.14;100673.44;5108766;28;20207;-61
2022/12/26 12:44:51;;;;;;;4.40;1.10;;;;;;;14.10;73.07;100672.31;5111021;28;20244;-63
2022/12/26 12:47:35;;;;;;;3.53;1.20;;;;;;;14.16;72.83;100676.16;5104794;28;20668;-62
2022/12/26 12:50:13;;;;;;;4.30;1.20;;;;;;;14.16;72.06;100676.16;5107545;28;20322;-62
2022/12/26 12:52:48;;;;;;;2.57;1.13;;;;;;;14.21;72.33;100673.81;5104386;28;20818;-63
2022/12/26 12:55:44;;;;;;;3.13;1.20;;;;;;;14.18;72.65;100682.97;5110328;27;20204;-62
2022/12/26 12:58:18;;;;;;;2.40;1.20;;;;;;;14.18;72.95;100668.78;5090598;28;20209;-63
2022/12/26 13:00:52;;;;;;;3.90;1.50;;;;;;;14.19;71.83;100665.97;5098783;28;20296;-63
2022/12/26 13:03:28;;;;;;;4.27;1.80;;;;;;;14.10;72.88;100671.47;5104062;28;20201;-63
2022/12/26 13:06:02;;;;;;;5.80;2.20;;;;;;;14.17;71.83;100661.78;5104530;28;20676;-63
2022/12/26 13:08:36;;;;;;;3.03;1.50;;;;;;;14.02;71.67;100679.47;5099438;28;20215;-63
2022/12/26 13:11:08;;;;;;;1.70;0.83;;;;;;;14.04;71.38;100661.47;5106214;28;20254;-62
2022/12/26 13:13:40;;;;;;;3.60;1.30;;;;;;;14.03;72.04;100654.47;5101140;28;20225;-63
2022/12/26 13:16:13;;;;;;;1.80;0.90;;;;;;;14.03;72.65;100652.63;5104596;28;20247;-63
2022/12/26 13:18:50;;;;;;;4.00;1.67;;;;;;;14.10;71.91;100660.81;5104882;28;20640;-63
2022/12/26 13:21:20;;;;;;;4.17;1.10;;;;;;;14.09;71.50;100656.47;5106247;27;20210;-63
2022/12/26 13:26:42;;;;;;;5.20;1.60;;;;;;;14.04;72.06;100648.97;5096407;28;20589;-62
2022/12/26 13:29:15;;;;;;;4.97;2.03;;;;;;;14.01;72.20;100645.78;5099643;28;20207;-63
2022/12/26 13:31:43;;;;;;;4.47;1.70;;;;;;;14.01;72.59;100640.47;5103938;28;20626;-62
2022/12/26 13:34:17;;;;;;;6.93;1.90;;;;;;;14.02;72.53;100650.13;5103690;28;20609;-62
2022/12/26 13:36:46;;;;;;;2.77;1.37;;;;;;;14.00;71.89;100638.78;5109126;28;20219;-62
2022/12/26 13:39:31;;;;;;;4.67;1.23;;;;;;;14.03;71.22;100654.47;5103627;28;20616;-62
2022/12/26 13:45:46;;;;;;;3.73;1.00;;;;;;;13.85;72.35;100639.47;5104817;28;20245;-62
2022/12/26 13:48:53;;;;;;;2.03;0.90;;;;;;;13.88;71.76;100640.97;5103928;28;20211;-64
2022/12/26 13:52:01;;;;;;;4.50;0.90;;;;;;;13.75;72.51;100636.09;5095200;28;20293;-63
2022/12/26 13:54:30;;;;;;;2.00;0.70;;;;;;;13.78;72.89;100635.78;5105170;28;20318;-63
2022/12/26 13:57:38;;;;;;;1.20;0.60;;;;;;;13.72;73.12;100646.28;5103896;28;20291;-63